sensor_id;sensor_type;location;lat;lon;timestamp;P1;durP1;ratioP1;P2;durP2;ratioP2
8232;SDS011;4157;48.074;9.952;2024-03-07T00:00:46;10.70;;;8.57;;
8232;SDS011;4157;48.074;9.952;2024-03-07T00:03:14;10.77;;;9.30;;
8232;SDS011;4157;48.074;9.952;2024-03-07T00:06:01;11.10;;;9.07;;
8232;SDS011;4157;48.074;9.952;2024-03-07T00:08:29;10.95;;;8.98;;
8232;SDS011;4157;48.074;9.952;2024-03-07T00:10:57;10.23;;;8.32;;
8232;SDS011;4157;48.074;9.952;2024-03-07T00:13:26;10.07;;;8.10;;
8232;SDS011;4157;48.074;9.952;2024-03-07T00:15:53;11.13;;;9.15;;
8232;SDS011;4157;48.074;9.952;2024-03-07T00:18:21;10.50;;;8.68;;
8232;SDS011;4157;48.074;9.952;2024-03-07T00:20:49;11.07;;;9.15;;
8232;SDS011;4157;48.074;9.952;2024-03-07T00:23:16;10.25;;;8.40;;
8232;SDS011;4157;48.074;9.952;2024-03-07T00:25:44;10.60;;;8.57;;
8232;SDS011;4157;48.074;9.952;2024-03-07T00:28:14;12.13;;;9.60;;
8232;SDS011;4157;48.074;9.952;2024-03-07T00:30:44;11.48;;;9.57;;
8232;SDS011;4157;48.074;9.952;2024-03-07T00:33:13;10.45;;;8.30;;
8232;SDS011;4157;48.074;9.952;2024-03-07T00:35:40;11.10;;;9.18;;
8232;SDS011;4157;48.074;9.952;2024-03-07T00:38:10;10.60;;;8.90;;
8232;SDS011;4157;48.074;9.952;2024-03-07T00:40:37;10.88;;;8.77;;
8232;SDS011;4157;48.074;9.952;2024-03-07T00:43:05;10.48;;;8.70;;
8232;SDS011;4157;48.074;9.952;2024-03-07T00:45:33;10.77;;;8.85;;
8232;SDS011;4157;48.074;9.952;2024-03-07T00:48:02;11.15;;;9.02;;
8232;SDS011;4157;48.074;9.952;2024-03-07T00:50:30;11.48;;;9.35;;
8232;SDS011;4157;48.074;9.952;2024-03-07T00:52:58;11.52;;;9.32;;
8232;SDS011;4157;48.074;9.952;2024-03-07T00:55:26;11.82;;;9.50;;
8232;SDS011;4157;48.074;9.952;2024-03-07T00:57:53;12.20;;;9.45;;
8232;SDS011;4157;48.074;9.952;2024-03-07T01:00:21;11.00;;;9.15;;
8232;SDS011;4157;48.074;9.952;2024-03-07T01:02:49;11.77;;;9.32;;
8232;SDS011;4157;48.074;9.952;2024-03-07T01:05:20;10.80;;;8.85;;
8232;SDS011;4157;48.074;9.952;2024-03-07T01:07:47;11.40;;;9.57;;
8232;SDS011;4157;48.074;9.952;2024-03-07T01:10:15;10.90;;;8.75;;
8232;SDS011;4157;48.074;9.952;2024-03-07T01:12:43;11.43;;;8.93;;
8232;SDS011;4157;48.074;9.952;2024-03-07T01:15:11;11.63;;;9.60;;
8232;SDS011;4157;48.074;9.952;2024-03-07T01:17:40;12.82;;;10.00;;
8232;SDS011;4157;48.074;9.952;2024-03-07T01:20:08;12.15;;;9.93;;
8232;SDS011;4157;48.074;9.952;2024-03-07T01:22:38;13.60;;;10.63;;
8232;SDS011;4157;48.074;9.952;2024-03-07T01:25:06;12.50;;;9.90;;
8232;SDS011;4157;48.074;9.952;2024-03-07T01:27:34;13.13;;;10.32;;
8232;SDS011;4157;48.074;9.952;2024-03-07T01:30:01;14.15;;;11.07;;
8232;SDS011;4157;48.074;9.952;2024-03-07T01:32:29;13.80;;;11.23;;
8232;SDS011;4157;48.074;9.952;2024-03-07T01:34:57;16.30;;;12.88;;
8232;SDS011;4157;48.074;9.952;2024-03-07T01:37:24;14.65;;;11.60;;
8232;SDS011;4157;48.074;9.952;2024-03-07T01:39:54;13.77;;;10.68;;
8232;SDS011;4157;48.074;9.952;2024-03-07T01:42:22;15.77;;;12.52;;
8232;SDS011;4157;48.074;9.952;2024-03-07T01:44:50;14.48;;;11.68;;
8232;SDS011;4157;48.074;9.952;2024-03-07T01:47:18;16.38;;;12.13;;
8232;SDS011;4157;48.074;9.952;2024-03-07T01:49:46;14.57;;;12.18;;
8232;SDS011;4157;48.074;9.952;2024-03-07T01:52:14;15.35;;;11.93;;
8232;SDS011;4157;48.074;9.952;2024-03-07T01:54:41;14.75;;;11.15;;
8232;SDS011;4157;48.074;9.952;2024-03-07T01:57:10;15.77;;;12.73;;
8232;SDS011;4157;48.074;9.952;2024-03-07T01:59:39;15.57;;;12.70;;
8232;SDS011;4157;48.074;9.952;2024-03-07T02:02:07;15.80;;;12.50;;
8232;SDS011;4157;48.074;9.952;2024-03-07T02:04:34;13.73;;;10.98;;
8232;SDS011;4157;48.074;9.952;2024-03-07T02:07:02;15.80;;;12.15;;
8232;SDS011;4157;48.074;9.952;2024-03-07T02:09:30;15.40;;;12.02;;
8232;SDS011;4157;48.074;9.952;2024-03-07T02:11:57;15.82;;;12.10;;
8232;SDS011;4157;48.074;9.952;2024-03-07T02:14:27;15.18;;;11.85;;
8232;SDS011;4157;48.074;9.952;2024-03-07T02:16:55;15.25;;;11.82;;
8232;SDS011;4157;48.074;9.952;2024-03-07T02:19:23;16.27;;;12.30;;
8232;SDS011;4157;48.074;9.952;2024-03-07T02:21:52;15.05;;;11.18;;
8232;SDS011;4157;48.074;9.952;2024-03-07T02:24:20;16.60;;;12.93;;
8232;SDS011;4157;48.074;9.952;2024-03-07T02:26:47;16.42;;;12.35;;
8232;SDS011;4157;48.074;9.952;2024-03-07T02:29:15;17.30;;;13.30;;
8232;SDS011;4157;48.074;9.952;2024-03-07T02:31:45;15.32;;;12.48;;
8232;SDS011;4157;48.074;9.952;2024-03-07T02:34:12;15.32;;;11.95;;
8232;SDS011;4157;48.074;9.952;2024-03-07T02:36:40;15.43;;;12.32;;
8232;SDS011;4157;48.074;9.952;2024-03-07T02:39:09;16.73;;;12.82;;
8232;SDS011;4157;48.074;9.952;2024-03-07T02:41:37;15.65;;;12.68;;
8232;SDS011;4157;48.074;9.952;2024-03-07T02:44:05;15.15;;;11.82;;
8232;SDS011;4157;48.074;9.952;2024-03-07T02:46:32;16.15;;;12.93;;
8232;SDS011;4157;48.074;9.952;2024-03-07T02:49:00;15.40;;;12.07;;
8232;SDS011;4157;48.074;9.952;2024-03-07T02:51:27;16.20;;;13.10;;
8232;SDS011;4157;48.074;9.952;2024-03-07T02:53:55;17.13;;;13.30;;
8232;SDS011;4157;48.074;9.952;2024-03-07T02:56:24;18.15;;;14.10;;
8232;SDS011;4157;48.074;9.952;2024-03-07T02:58:52;16.95;;;13.20;;
8232;SDS011;4157;48.074;9.952;2024-03-07T03:01:20;17.05;;;13.70;;
8232;SDS011;4157;48.074;9.952;2024-03-07T03:03:48;16.60;;;13.40;;
8232;SDS011;4157;48.074;9.952;2024-03-07T03:06:15;16.45;;;12.93;;
8232;SDS011;4157;48.074;9.952;2024-03-07T03:08:46;16.00;;;12.23;;
8232;SDS011;4157;48.074;9.952;2024-03-07T03:11:13;17.17;;;13.57;;
8232;SDS011;4157;48.074;9.952;2024-03-07T03:13:42;16.50;;;13.43;;
8232;SDS011;4157;48.074;9.952;2024-03-07T03:16:12;16.40;;;12.98;;
8232;SDS011;4157;48.074;9.952;2024-03-07T03:18:40;16.92;;;12.90;;
8232;SDS011;4157;48.074;9.952;2024-03-07T03:21:07;17.90;;;13.50;;
8232;SDS011;4157;48.074;9.952;2024-03-07T03:23:35;18.42;;;14.18;;
8232;SDS011;4157;48.074;9.952;2024-03-07T03:26:03;17.65;;;13.32;;
8232;SDS011;4157;48.074;9.952;2024-03-07T03:28:30;19.00;;;13.57;;
8232;SDS011;4157;48.074;9.952;2024-03-07T03:30:59;19.35;;;14.27;;
8232;SDS011;4157;48.074;9.952;2024-03-07T03:33:27;17.88;;;13.93;;
8232;SDS011;4157;48.074;9.952;2024-03-07T03:35:55;18.00;;;13.95;;
8232;SDS011;4157;48.074;9.952;2024-03-07T03:38:24;18.42;;;14.60;;
8232;SDS011;4157;48.074;9.952;2024-03-07T03:40:52;18.48;;;14.38;;
8232;SDS011;4157;48.074;9.952;2024-03-07T03:43:21;19.50;;;14.65;;
8232;SDS011;4157;48.074;9.952;2024-03-07T03:45:48;22.08;;;16.77;;
8232;SDS011;4157;48.074;9.952;2024-03-07T03:48:17;21.70;;;16.13;;
8232;SDS011;4157;48.074;9.952;2024-03-07T03:50:45;22.08;;;16.85;;
8232;SDS011;4157;48.074;9.952;2024-03-07T03:53:13;20.55;;;15.43;;
8232;SDS011;4157;48.074;9.952;2024-03-07T03:55:40;21.23;;;16.30;;
8232;SDS011;4157;48.074;9.952;2024-03-07T03:58:08;23.58;;;15.95;;
8232;SDS011;4157;48.074;9.952;2024-03-07T04:00:36;22.10;;;16.40;;
8232;SDS011;4157;48.074;9.952;2024-03-07T04:03:04;20.77;;;15.45;;
8232;SDS011;4157;48.074;9.952;2024-03-07T04:05:34;25.38;;;16.88;;
8232;SDS011;4157;48.074;9.952;2024-03-07T04:08:01;21.00;;;15.90;;
8232;SDS011;4157;48.074;9.952;2024-03-07T04:10:29;19.95;;;16.25;;
8232;SDS011;4157;48.074;9.952;2024-03-07T04:12:57;19.83;;;15.57;;
8232;SDS011;4157;48.074;9.952;2024-03-07T04:15:25;22.42;;;15.90;;
8232;SDS011;4157;48.074;9.952;2024-03-07T04:17:56;22.48;;;16.50;;
8232;SDS011;4157;48.074;9.952;2024-03-07T04:20:24;21.30;;;16.58;;
8232;SDS011;4157;48.074;9.952;2024-03-07T04:22:53;21.50;;;16.15;;
8232;SDS011;4157;48.074;9.952;2024-03-07T04:25:21;22.85;;;17.42;;
8232;SDS011;4157;48.074;9.952;2024-03-07T04:27:50;22.20;;;17.30;;
8232;SDS011;4157;48.074;9.952;2024-03-07T04:30:18;22.65;;;17.00;;
8232;SDS011;4157;48.074;9.952;2024-03-07T04:32:45;24.48;;;18.13;;
8232;SDS011;4157;48.074;9.952;2024-03-07T04:35:13;23.75;;;19.23;;
8232;SDS011;4157;48.074;9.952;2024-03-07T04:37:41;25.75;;;20.52;;
8232;SDS011;4157;48.074;9.952;2024-03-07T04:40:10;29.60;;;22.80;;
8232;SDS011;4157;48.074;9.952;2024-03-07T04:42:42;33.35;;;24.60;;
8232;SDS011;4157;48.074;9.952;2024-03-07T04:45:10;37.58;;;26.13;;
8232;SDS011;4157;48.074;9.952;2024-03-07T04:47:39;30.95;;;23.98;;
8232;SDS011;4157;48.074;9.952;2024-03-07T04:50:07;31.25;;;23.75;;
8232;SDS011;4157;48.074;9.952;2024-03-07T04:52:36;31.58;;;24.27;;
8232;SDS011;4157;48.074;9.952;2024-03-07T04:55:05;31.77;;;25.67;;
8232;SDS011;4157;48.074;9.952;2024-03-07T04:57:36;36.15;;;26.38;;
8232;SDS011;4157;48.074;9.952;2024-03-07T05:00:06;34.80;;;26.73;;
8232;SDS011;4157;48.074;9.952;2024-03-07T05:02:39;36.22;;;27.88;;
8232;SDS011;4157;48.074;9.952;2024-03-07T05:05:07;36.85;;;27.77;;
8232;SDS011;4157;48.074;9.952;2024-03-07T05:07:34;37.63;;;27.02;;
8232;SDS011;4157;48.074;9.952;2024-03-07T05:10:02;41.65;;;30.40;;
8232;SDS011;4157;48.074;9.952;2024-03-07T05:12:30;42.03;;;30.90;;
8232;SDS011;4157;48.074;9.952;2024-03-07T05:14:59;43.38;;;31.02;;
8232;SDS011;4157;48.074;9.952;2024-03-07T05:17:29;41.83;;;30.88;;
8232;SDS011;4157;48.074;9.952;2024-03-07T05:20:00;40.03;;;31.63;;
8232;SDS011;4157;48.074;9.952;2024-03-07T05:22:28;38.85;;;29.25;;
8232;SDS011;4157;48.074;9.952;2024-03-07T05:24:56;36.67;;;27.92;;
8232;SDS011;4157;48.074;9.952;2024-03-07T05:27:24;36.88;;;28.05;;
8232;SDS011;4157;48.074;9.952;2024-03-07T05:29:53;38.67;;;29.13;;
8232;SDS011;4157;48.074;9.952;2024-03-07T05:32:22;39.78;;;30.40;;
8232;SDS011;4157;48.074;9.952;2024-03-07T05:34:51;39.78;;;30.45;;
8232;SDS011;4157;48.074;9.952;2024-03-07T05:37:20;39.50;;;30.63;;
8232;SDS011;4157;48.074;9.952;2024-03-07T05:39:48;41.83;;;30.48;;
8232;SDS011;4157;48.074;9.952;2024-03-07T05:42:16;39.65;;;30.33;;
8232;SDS011;4157;48.074;9.952;2024-03-07T05:44:44;37.60;;;29.40;;
8232;SDS011;4157;48.074;9.952;2024-03-07T05:47:12;38.03;;;29.95;;
8232;SDS011;4157;48.074;9.952;2024-03-07T05:49:41;39.22;;;29.25;;
8232;SDS011;4157;48.074;9.952;2024-03-07T05:52:09;40.00;;;31.17;;
8232;SDS011;4157;48.074;9.952;2024-03-07T05:54:37;40.83;;;31.27;;
8232;SDS011;4157;48.074;9.952;2024-03-07T05:57:04;39.58;;;29.77;;
8232;SDS011;4157;48.074;9.952;2024-03-07T05:59:32;37.72;;;29.45;;
8232;SDS011;4157;48.074;9.952;2024-03-07T06:02:00;38.17;;;28.88;;
8232;SDS011;4157;48.074;9.952;2024-03-07T06:04:28;36.95;;;28.20;;
8232;SDS011;4157;48.074;9.952;2024-03-07T06:06:59;42.08;;;30.33;;
8232;SDS011;4157;48.074;9.952;2024-03-07T06:09:26;42.05;;;29.60;;
8232;SDS011;4157;48.074;9.952;2024-03-07T06:11:54;38.83;;;29.60;;
8232;SDS011;4157;48.074;9.952;2024-03-07T06:14:22;39.97;;;30.42;;
8232;SDS011;4157;48.074;9.952;2024-03-07T06:16:50;43.72;;;30.48;;
8232;SDS011;4157;48.074;9.952;2024-03-07T06:19:18;40.58;;;30.17;;
8232;SDS011;4157;48.074;9.952;2024-03-07T06:21:46;37.95;;;27.77;;
8232;SDS011;4157;48.074;9.952;2024-03-07T06:24:16;40.22;;;29.35;;
8232;SDS011;4157;48.074;9.952;2024-03-07T06:26:44;37.70;;;28.83;;
8232;SDS011;4157;48.074;9.952;2024-03-07T06:29:15;39.50;;;30.80;;
8232;SDS011;4157;48.074;9.952;2024-03-07T06:31:43;43.72;;;31.67;;
8232;SDS011;4157;48.074;9.952;2024-03-07T06:34:12;44.35;;;30.90;;
8232;SDS011;4157;48.074;9.952;2024-03-07T06:36:39;40.13;;;29.10;;
8232;SDS011;4157;48.074;9.952;2024-03-07T06:39:07;45.63;;;31.58;;
8232;SDS011;4157;48.074;9.952;2024-03-07T06:41:37;39.80;;;29.30;;
8232;SDS011;4157;48.074;9.952;2024-03-07T06:44:05;37.30;;;28.25;;
8232;SDS011;4157;48.074;9.952;2024-03-07T06:46:33;38.78;;;28.55;;
8232;SDS011;4157;48.074;9.952;2024-03-07T06:49:00;37.90;;;28.13;;
8232;SDS011;4157;48.074;9.952;2024-03-07T06:51:31;38.35;;;28.52;;
8232;SDS011;4157;48.074;9.952;2024-03-07T06:53:59;36.63;;;27.63;;
8232;SDS011;4157;48.074;9.952;2024-03-07T06:56:26;38.35;;;29.33;;
8232;SDS011;4157;48.074;9.952;2024-03-07T06:58:55;38.38;;;28.45;;
8232;SDS011;4157;48.074;9.952;2024-03-07T07:01:23;36.85;;;27.00;;
8232;SDS011;4157;48.074;9.952;2024-03-07T07:03:51;37.05;;;27.73;;
8232;SDS011;4157;48.074;9.952;2024-03-07T07:06:20;36.30;;;28.13;;
8232;SDS011;4157;48.074;9.952;2024-03-07T07:08:48;39.30;;;28.27;;
8232;SDS011;4157;48.074;9.952;2024-03-07T07:11:15;37.10;;;27.65;;
8232;SDS011;4157;48.074;9.952;2024-03-07T07:13:43;38.95;;;27.95;;
8232;SDS011;4157;48.074;9.952;2024-03-07T07:16:13;38.90;;;29.23;;
8232;SDS011;4157;48.074;9.952;2024-03-07T07:18:41;40.50;;;29.17;;
8232;SDS011;4157;48.074;9.952;2024-03-07T07:21:09;38.42;;;28.88;;
8232;SDS011;4157;48.074;9.952;2024-03-07T07:23:39;38.90;;;28.90;;
8232;SDS011;4157;48.074;9.952;2024-03-07T07:26:07;44.53;;;30.90;;
8232;SDS011;4157;48.074;9.952;2024-03-07T07:28:35;44.17;;;30.85;;
8232;SDS011;4157;48.074;9.952;2024-03-07T07:31:03;42.85;;;31.15;;
8232;SDS011;4157;48.074;9.952;2024-03-07T07:33:32;45.60;;;30.45;;
8232;SDS011;4157;48.074;9.952;2024-03-07T07:36:00;41.95;;;31.02;;
8232;SDS011;4157;48.074;9.952;2024-03-07T07:38:28;41.72;;;30.20;;
8232;SDS011;4157;48.074;9.952;2024-03-07T07:40:57;41.38;;;29.80;;
8232;SDS011;4157;48.074;9.952;2024-03-07T07:43:24;42.45;;;30.48;;
8232;SDS011;4157;48.074;9.952;2024-03-07T07:45:54;41.50;;;29.88;;
8232;SDS011;4157;48.074;9.952;2024-03-07T07:48:22;41.47;;;30.42;;
8232;SDS011;4157;48.074;9.952;2024-03-07T07:50:51;43.47;;;30.55;;
8232;SDS011;4157;48.074;9.952;2024-03-07T07:53:18;39.38;;;28.58;;
8232;SDS011;4157;48.074;9.952;2024-03-07T07:55:46;40.13;;;30.67;;
8232;SDS011;4157;48.074;9.952;2024-03-07T07:58:14;40.65;;;30.23;;
8232;SDS011;4157;48.074;9.952;2024-03-07T08:00:42;39.20;;;29.02;;
8232;SDS011;4157;48.074;9.952;2024-03-07T08:03:10;41.00;;;29.63;;
8232;SDS011;4157;48.074;9.952;2024-03-07T08:05:39;44.33;;;31.67;;
8232;SDS011;4157;48.074;9.952;2024-03-07T08:08:10;42.83;;;31.33;;
8232;SDS011;4157;48.074;9.952;2024-03-07T08:10:39;39.67;;;30.00;;
8232;SDS011;4157;48.074;9.952;2024-03-07T08:13:07;43.28;;;30.40;;
8232;SDS011;4157;48.074;9.952;2024-03-07T08:15:36;39.00;;;29.10;;
8232;SDS011;4157;48.074;9.952;2024-03-07T08:18:04;44.15;;;31.98;;
8232;SDS011;4157;48.074;9.952;2024-03-07T08:20:34;41.08;;;29.90;;
8232;SDS011;4157;48.074;9.952;2024-03-07T08:23:02;40.03;;;30.70;;
8232;SDS011;4157;48.074;9.952;2024-03-07T08:25:31;43.42;;;32.50;;
8232;SDS011;4157;48.074;9.952;2024-03-07T08:27:58;40.17;;;30.02;;
8232;SDS011;4157;48.074;9.952;2024-03-07T08:30:26;42.53;;;31.13;;
8232;SDS011;4157;48.074;9.952;2024-03-07T08:32:55;39.97;;;30.10;;
8232;SDS011;4157;48.074;9.952;2024-03-07T08:35:23;42.13;;;33.03;;
8232;SDS011;4157;48.074;9.952;2024-03-07T08:37:51;42.72;;;32.38;;
8232;SDS011;4157;48.074;9.952;2024-03-07T08:40:19;43.42;;;34.28;;
8232;SDS011;4157;48.074;9.952;2024-03-07T08:42:49;42.88;;;32.53;;
8232;SDS011;4157;48.074;9.952;2024-03-07T08:45:17;46.65;;;33.80;;
8232;SDS011;4157;48.074;9.952;2024-03-07T08:47:45;40.78;;;31.75;;
8232;SDS011;4157;48.074;9.952;2024-03-07T08:50:13;40.20;;;31.30;;
8232;SDS011;4157;48.074;9.952;2024-03-07T08:52:43;41.75;;;32.03;;
8232;SDS011;4157;48.074;9.952;2024-03-07T08:55:12;39.40;;;31.77;;
8232;SDS011;4157;48.074;9.952;2024-03-07T08:57:40;45.03;;;34.03;;
8232;SDS011;4157;48.074;9.952;2024-03-07T09:00:11;46.47;;;35.80;;
8232;SDS011;4157;48.074;9.952;2024-03-07T09:02:48;53.33;;;41.22;;
8232;SDS011;4157;48.074;9.952;2024-03-07T09:05:17;50.60;;;38.60;;
8232;SDS011;4157;48.074;9.952;2024-03-07T09:07:45;48.67;;;37.40;;
8232;SDS011;4157;48.074;9.952;2024-03-07T09:10:13;43.38;;;34.38;;
8232;SDS011;4157;48.074;9.952;2024-03-07T09:12:41;46.45;;;34.65;;
8232;SDS011;4157;48.074;9.952;2024-03-07T09:15:11;44.45;;;35.05;;
8232;SDS011;4157;48.074;9.952;2024-03-07T09:17:39;46.30;;;35.63;;
8232;SDS011;4157;48.074;9.952;2024-03-07T09:20:07;46.28;;;35.75;;
8232;SDS011;4157;48.074;9.952;2024-03-07T09:22:40;46.35;;;36.00;;
8232;SDS011;4157;48.074;9.952;2024-03-07T09:25:08;46.42;;;36.88;;
8232;SDS011;4157;48.074;9.952;2024-03-07T09:27:36;43.33;;;34.35;;
8232;SDS011;4157;48.074;9.952;2024-03-07T09:30:06;45.83;;;35.95;;
8232;SDS011;4157;48.074;9.952;2024-03-07T09:32:39;44.17;;;34.75;;
8232;SDS011;4157;48.074;9.952;2024-03-07T09:35:07;45.75;;;36.05;;
8232;SDS011;4157;48.074;9.952;2024-03-07T09:37:38;43.85;;;34.67;;
8232;SDS011;4157;48.074;9.952;2024-03-07T09:40:07;44.83;;;33.67;;
8232;SDS011;4157;48.074;9.952;2024-03-07T09:42:37;45.38;;;34.90;;
8232;SDS011;4157;48.074;9.952;2024-03-07T09:45:09;49.38;;;36.72;;
8232;SDS011;4157;48.074;9.952;2024-03-07T09:47:44;46.58;;;36.13;;
8232;SDS011;4157;48.074;9.952;2024-03-07T09:50:13;50.65;;;38.08;;
8232;SDS011;4157;48.074;9.952;2024-03-07T09:52:41;47.55;;;35.97;;
8232;SDS011;4157;48.074;9.952;2024-03-07T09:55:09;45.38;;;36.45;;
8232;SDS011;4157;48.074;9.952;2024-03-07T09:57:36;46.28;;;36.75;;
8232;SDS011;4157;48.074;9.952;2024-03-07T10:00:06;46.53;;;35.42;;
8232;SDS011;4157;48.074;9.952;2024-03-07T10:02:38;47.75;;;35.55;;
8232;SDS011;4157;48.074;9.952;2024-03-07T10:05:09;48.80;;;36.72;;
8232;SDS011;4157;48.074;9.952;2024-03-07T10:07:37;44.50;;;36.25;;
8232;SDS011;4157;48.074;9.952;2024-03-07T10:10:05;48.35;;;37.53;;
8232;SDS011;4157;48.074;9.952;2024-03-07T10:12:37;46.88;;;37.28;;
8232;SDS011;4157;48.074;9.952;2024-03-07T10:15:05;48.65;;;38.55;;
8232;SDS011;4157;48.074;9.952;2024-03-07T10:17:36;54.25;;;41.13;;
8232;SDS011;4157;48.074;9.952;2024-03-07T10:20:05;47.88;;;37.55;;
8232;SDS011;4157;48.074;9.952;2024-03-07T10:22:36;47.65;;;37.13;;
8232;SDS011;4157;48.074;9.952;2024-03-07T10:25:04;47.80;;;37.17;;
8232;SDS011;4157;48.074;9.952;2024-03-07T10:27:33;47.03;;;38.03;;
8232;SDS011;4157;48.074;9.952;2024-03-07T10:30:03;47.58;;;37.17;;
8232;SDS011;4157;48.074;9.952;2024-03-07T10:32:34;49.53;;;36.40;;
8232;SDS011;4157;48.074;9.952;2024-03-07T10:35:02;43.80;;;34.55;;
8232;SDS011;4157;48.074;9.952;2024-03-07T10:37:34;46.90;;;35.00;;
8232;SDS011;4157;48.074;9.952;2024-03-07T10:40:04;46.75;;;37.00;;
8232;SDS011;4157;48.074;9.952;2024-03-07T10:42:42;49.28;;;39.10;;
8232;SDS011;4157;48.074;9.952;2024-03-07T10:45:12;49.75;;;38.75;;
8232;SDS011;4157;48.074;9.952;2024-03-07T10:47:43;49.67;;;38.28;;
8232;SDS011;4157;48.074;9.952;2024-03-07T10:50:17;51.38;;;39.03;;
8232;SDS011;4157;48.074;9.952;2024-03-07T10:52:48;52.92;;;38.85;;
8232;SDS011;4157;48.074;9.952;2024-03-07T10:55:22;49.95;;;38.97;;
8232;SDS011;4157;48.074;9.952;2024-03-07T11:00:21;49.03;;;39.17;;
8232;SDS011;4157;48.074;9.952;2024-03-07T11:03:01;50.65;;;39.03;;
8232;SDS011;4157;48.074;9.952;2024-03-07T11:05:32;48.60;;;38.13;;
8232;SDS011;4157;48.074;9.952;2024-03-07T11:08:01;49.38;;;38.85;;
8232;SDS011;4157;48.074;9.952;2024-03-07T11:10:34;49.47;;;37.72;;
8232;SDS011;4157;48.074;9.952;2024-03-07T11:13:03;54.92;;;40.60;;
8232;SDS011;4157;48.074;9.952;2024-03-07T11:15:31;51.65;;;40.15;;
8232;SDS011;4157;48.074;9.952;2024-03-07T11:17:59;51.35;;;39.40;;
8232;SDS011;4157;48.074;9.952;2024-03-07T11:20:33;55.08;;;41.75;;
8232;SDS011;4157;48.074;9.952;2024-03-07T11:23:01;57.15;;;40.80;;
8232;SDS011;4157;48.074;9.952;2024-03-07T11:25:50;56.78;;;42.30;;
8232;SDS011;4157;48.074;9.952;2024-03-07T11:28:17;52.30;;;42.08;;
8232;SDS011;4157;48.074;9.952;2024-03-07T11:30:46;53.83;;;41.80;;
8232;SDS011;4157;48.074;9.952;2024-03-07T11:33:13;48.90;;;38.65;;
8232;SDS011;4157;48.074;9.952;2024-03-07T11:35:48;48.40;;;38.58;;
8232;SDS011;4157;48.074;9.952;2024-03-07T11:38:15;51.70;;;39.20;;
8232;SDS011;4157;48.074;9.952;2024-03-07T11:40:51;55.08;;;40.47;;
8232;SDS011;4157;48.074;9.952;2024-03-07T11:43:22;56.03;;;41.53;;
8232;SDS011;4157;48.074;9.952;2024-03-07T11:45:54;51.65;;;38.60;;
8232;SDS011;4157;48.074;9.952;2024-03-07T11:48:23;51.05;;;39.30;;
8232;SDS011;4157;48.074;9.952;2024-03-07T11:50:51;49.88;;;38.70;;
8232;SDS011;4157;48.074;9.952;2024-03-07T11:53:20;51.53;;;38.97;;
8232;SDS011;4157;48.074;9.952;2024-03-07T11:55:48;52.38;;;40.30;;
8232;SDS011;4157;48.074;9.952;2024-03-07T11:58:18;50.78;;;38.30;;
8232;SDS011;4157;48.074;9.952;2024-03-07T12:00:47;49.28;;;37.67;;
8232;SDS011;4157;48.074;9.952;2024-03-07T12:03:17;49.40;;;37.88;;
8232;SDS011;4157;48.074;9.952;2024-03-07T12:05:46;47.78;;;35.97;;
8232;SDS011;4157;48.074;9.952;2024-03-07T12:08:14;46.25;;;35.92;;
8232;SDS011;4157;48.074;9.952;2024-03-07T12:10:42;50.58;;;39.00;;
8232;SDS011;4157;48.074;9.952;2024-03-07T12:13:10;50.03;;;37.60;;
8232;SDS011;4157;48.074;9.952;2024-03-07T12:15:42;54.97;;;39.90;;
8232;SDS011;4157;48.074;9.952;2024-03-07T12:18:10;53.95;;;40.13;;
8232;SDS011;4157;48.074;9.952;2024-03-07T12:20:40;54.58;;;39.92;;
8232;SDS011;4157;48.074;9.952;2024-03-07T12:23:12;57.50;;;41.33;;
8232;SDS011;4157;48.074;9.952;2024-03-07T12:25:41;53.90;;;41.05;;
8232;SDS011;4157;48.074;9.952;2024-03-07T12:28:10;54.97;;;39.65;;
8232;SDS011;4157;48.074;9.952;2024-03-07T12:30:48;50.42;;;40.15;;
8232;SDS011;4157;48.074;9.952;2024-03-07T12:33:16;53.65;;;40.42;;
8232;SDS011;4157;48.074;9.952;2024-03-07T12:35:45;55.25;;;41.45;;
8232;SDS011;4157;48.074;9.952;2024-03-07T12:38:13;67.57;;;47.50;;
8232;SDS011;4157;48.074;9.952;2024-03-07T12:40:42;60.60;;;43.97;;
8232;SDS011;4157;48.074;9.952;2024-03-07T12:43:15;56.00;;;40.88;;
8232;SDS011;4157;48.074;9.952;2024-03-07T12:45:51;52.75;;;41.75;;
8232;SDS011;4157;48.074;9.952;2024-03-07T12:48:20;56.60;;;43.65;;
8232;SDS011;4157;48.074;9.952;2024-03-07T12:50:48;60.70;;;45.60;;
8232;SDS011;4157;48.074;9.952;2024-03-07T12:53:19;59.92;;;42.70;;
8232;SDS011;4157;48.074;9.952;2024-03-07T12:55:47;56.63;;;43.47;;
8232;SDS011;4157;48.074;9.952;2024-03-07T12:58:17;52.60;;;40.33;;
8232;SDS011;4157;48.074;9.952;2024-03-07T13:00:45;57.38;;;43.55;;
8232;SDS011;4157;48.074;9.952;2024-03-07T13:03:14;54.83;;;43.50;;
8232;SDS011;4157;48.074;9.952;2024-03-07T13:05:42;54.50;;;42.53;;
8232;SDS011;4157;48.074;9.952;2024-03-07T13:08:10;57.92;;;45.53;;
8232;SDS011;4157;48.074;9.952;2024-03-07T13:10:38;59.55;;;43.53;;
8232;SDS011;4157;48.074;9.952;2024-03-07T13:13:06;59.72;;;45.45;;
8232;SDS011;4157;48.074;9.952;2024-03-07T13:15:35;54.28;;;42.17;;
8232;SDS011;4157;48.074;9.952;2024-03-07T13:18:04;58.33;;;44.90;;
8232;SDS011;4157;48.074;9.952;2024-03-07T13:20:34;52.75;;;42.17;;
8232;SDS011;4157;48.074;9.952;2024-03-07T13:23:02;54.85;;;43.17;;
8232;SDS011;4157;48.074;9.952;2024-03-07T13:25:31;55.85;;;44.08;;
8232;SDS011;4157;48.074;9.952;2024-03-07T13:28:01;56.00;;;45.65;;
8232;SDS011;4157;48.074;9.952;2024-03-07T13:30:29;59.22;;;46.30;;
8232;SDS011;4157;48.074;9.952;2024-03-07T13:32:58;54.72;;;42.25;;
8232;SDS011;4157;48.074;9.952;2024-03-07T13:35:28;53.58;;;43.08;;
8232;SDS011;4157;48.074;9.952;2024-03-07T13:37:57;56.95;;;44.88;;
8232;SDS011;4157;48.074;9.952;2024-03-07T13:40:26;53.60;;;43.17;;
8232;SDS011;4157;48.074;9.952;2024-03-07T13:42:56;52.65;;;43.25;;
8232;SDS011;4157;48.074;9.952;2024-03-07T13:45:25;52.10;;;42.33;;
8232;SDS011;4157;48.074;9.952;2024-03-07T13:47:53;52.78;;;44.20;;
8232;SDS011;4157;48.074;9.952;2024-03-07T13:50:22;58.33;;;45.83;;
8232;SDS011;4157;48.074;9.952;2024-03-07T13:52:54;54.58;;;42.92;;
8232;SDS011;4157;48.074;9.952;2024-03-07T13:55:49;52.00;;;42.53;;
8232;SDS011;4157;48.074;9.952;2024-03-07T13:58:20;48.55;;;39.70;;
8232;SDS011;4157;48.074;9.952;2024-03-07T14:00:55;54.65;;;39.13;;
8232;SDS011;4157;48.074;9.952;2024-03-07T14:06:14;44.60;;;37.67;;
8232;SDS011;4157;48.074;9.952;2024-03-07T14:11:45;45.50;;;36.92;;
8232;SDS011;4157;48.074;9.952;2024-03-07T14:14:27;45.45;;;36.50;;
8232;SDS011;4157;48.074;9.952;2024-03-07T14:22:53;51.78;;;40.63;;
8232;SDS011;4157;48.074;9.952;2024-03-07T14:25:31;47.90;;;36.83;;
8232;SDS011;4157;48.074;9.952;2024-03-07T14:28:14;46.25;;;37.17;;
8232;SDS011;4157;48.074;9.952;2024-03-07T14:30:44;44.78;;;36.25;;
8232;SDS011;4157;48.074;9.952;2024-03-07T14:33:20;45.35;;;35.97;;
8232;SDS011;4157;48.074;9.952;2024-03-07T14:35:59;43.97;;;35.85;;
8232;SDS011;4157;48.074;9.952;2024-03-07T14:38:29;49.42;;;37.65;;
8232;SDS011;4157;48.074;9.952;2024-03-07T14:40:57;47.55;;;37.78;;
8232;SDS011;4157;48.074;9.952;2024-03-07T14:43:27;47.53;;;36.97;;
8232;SDS011;4157;48.074;9.952;2024-03-07T14:45:55;46.63;;;36.10;;
8232;SDS011;4157;48.074;9.952;2024-03-07T14:48:22;45.30;;;36.60;;
8232;SDS011;4157;48.074;9.952;2024-03-07T14:50:50;43.30;;;35.63;;
8232;SDS011;4157;48.074;9.952;2024-03-07T14:53:19;42.45;;;35.13;;
8232;SDS011;4157;48.074;9.952;2024-03-07T14:55:47;45.05;;;37.35;;
8232;SDS011;4157;48.074;9.952;2024-03-07T14:58:14;48.65;;;36.67;;
8232;SDS011;4157;48.074;9.952;2024-03-07T15:00:43;40.63;;;33.33;;
8232;SDS011;4157;48.074;9.952;2024-03-07T15:03:16;40.60;;;35.33;;
8232;SDS011;4157;48.074;9.952;2024-03-07T15:05:44;45.33;;;35.88;;
8232;SDS011;4157;48.074;9.952;2024-03-07T15:08:12;42.13;;;35.28;;
8232;SDS011;4157;48.074;9.952;2024-03-07T15:10:42;43.60;;;35.65;;
8232;SDS011;4157;48.074;9.952;2024-03-07T15:13:12;44.85;;;36.25;;